»·PEaware :: SWA1110 KTPA-KRDU

SWA1110 :: KTPA-KRDU

FLIGHT INFORMATION

Flight Status: Arrived
Operator:
Southwest Airlines
More flights by this operator :: More flights under this callsign
Pilot: Henderson P. (1210)
Aircraft: BOEING 737-800
(B738)
More flights by this aircraft type
Origin: KTPA Tampa Intl
United States
Destination: KRDU Raleigh-Durham Intl
United States
More flights between these airports :: More routes between these airports
Route: BAYPO7 DUNKN AORTA MALNR2
File this flight plan on PilotEdge
Remarks: PBN / A1D1O1S2T1 NAV / RNVD1E1A1 RNP10 DAT / 1FANSP2PDC REG / N8681M EET / KZDC0105
Altitude:
(Current/Filed)
37,000ft
Speed:
(Current/Filed)
451kts
Departed: 12-Jan-17 07:17 AM
Arrived: 12-Jan-17 08:41 AM
Distance/Time
Traveled:
511nm/1:23
Distance/Time
To Go:
Arrived

Flight Plot

Page will automatically refresh every two minutes.

Flight plan parsing failed; only flown route is shown


Map Options




Map Legend


Flown Route
Filed Route
Departure Airport
Arrival Airport
Navaid (VOR, NDB)
Fix

Horizontal Profiles

Position Reports

Time Latitude Longitude Heading Altitude Ground
Speed
12-Jan-17 06:42 27.983346 -82.533010 91 34ft 0kts
12-Jan-17 06:43 27.983346 -82.533010 91 34ft 0kts
12-Jan-17 06:44 27.983346 -82.533010 91 34ft 0kts
12-Jan-17 06:45 27.983346 -82.533010 91 34ft 0kts
12-Jan-17 06:46 27.983346 -82.533010 91 34ft 0kts
12-Jan-17 06:47 27.983346 -82.533010 91 34ft 0kts
12-Jan-17 06:48 27.983346 -82.533010 91 34ft 0kts
12-Jan-17 06:49 27.983346 -82.533010 91 34ft 0kts
12-Jan-17 06:50 27.983346 -82.533010 91 34ft 0kts
12-Jan-17 06:51 27.983346 -82.533010 91 34ft 0kts
12-Jan-17 06:52 27.983346 -82.533010 91 34ft 0kts
12-Jan-17 06:53 27.983346 -82.533010 91 34ft 0kts
12-Jan-17 06:54 27.983346 -82.533010 91 34ft 0kts
12-Jan-17 06:55 27.983346 -82.533010 91 34ft 0kts
12-Jan-17 06:56 27.983346 -82.533010 91 34ft 0kts
12-Jan-17 06:57 27.983346 -82.533010 91 34ft 0kts
12-Jan-17 06:58 27.983346 -82.533010 91 34ft 0kts
12-Jan-17 06:59 27.983346 -82.533010 91 34ft 0kts
12-Jan-17 07:00 27.983346 -82.533010 91 34ft 0kts
12-Jan-17 07:01 27.983346 -82.533010 91 34ft 0kts
12-Jan-17 07:02 27.983346 -82.533010 91 34ft 0kts
12-Jan-17 07:03 27.983346 -82.533010 91 34ft 0kts
12-Jan-17 07:04 27.983346 -82.533010 91 34ft 0kts
12-Jan-17 07:05 27.983346 -82.533010 91 34ft 0kts
12-Jan-17 07:06 27.983346 -82.533010 91 34ft 0kts
12-Jan-17 07:07 27.983346 -82.533010 91 34ft 0kts
12-Jan-17 07:08 27.983346 -82.533010 91 34ft 0kts
12-Jan-17 07:09 27.983357 -82.533355 91 34ft 2kts
12-Jan-17 07:10 27.983370 -82.533805 91 34ft 0kts
12-Jan-17 07:11 27.983370 -82.533805 91 34ft 0kts
12-Jan-17 07:12 27.983370 -82.533805 91 34ft 0kts
12-Jan-17 07:13 27.984501 -82.533712 356 33ft 12kts
12-Jan-17 07:14 27.985135 -82.537617 299 34ft 16kts
12-Jan-17 07:15 27.989964 -82.539368 1 34ft 21kts
12-Jan-17 07:16 27.993436 -82.541079 266 33ft 11kts
12-Jan-17 07:17 27.968171 -82.542189 181 415ft 169kts
12-Jan-17 07:18 27.916333 -82.559874 199 2470ft 238kts
12-Jan-17 07:19 27.856182 -82.599601 242 5593ft 271kts
12-Jan-17 07:20 27.893314 -82.662516 358 9717ft 291kts
12-Jan-17 07:21 27.978221 -82.654146 5 11735ft 338kts
12-Jan-17 07:22 28.078112 -82.643692 4 14250ft 369kts
12-Jan-17 07:23 28.182471 -82.634018 4 16993ft 384kts
12-Jan-17 07:24 28.290628 -82.623945 4 19413ft 397kts
12-Jan-17 07:25 28.402704 -82.613518 3 21593ft 411kts
12-Jan-17 07:26 28.518411 -82.602706 3 23489ft 424kts
12-Jan-17 07:27 28.637923 -82.591507 3 25198ft 436kts
12-Jan-17 07:28 28.760420 -82.600602 351 26731ft 446kts
12-Jan-17 07:29 28.884560 -82.618267 351 28081ft 457kts
12-Jan-17 07:30 29.012003 -82.636185 352 29301ft 467kts
12-Jan-17 07:31 29.141995 -82.654366 352 30674ft 469kts
12-Jan-17 07:32 29.271169 -82.672518 351 32126ft 468kts
12-Jan-17 07:33 29.399881 -82.690670 352 33529ft 464kts
12-Jan-17 07:34 29.528932 -82.693227 359 34880ft 461kts
12-Jan-17 07:35 29.656620 -82.691852 358 36151ft 457kts
12-Jan-17 07:36 29.783174 -82.690956 358 37284ft 454kts
12-Jan-17 07:37 29.910204 -82.690144 358 37486ft 454kts
12-Jan-17 07:38 30.035876 -82.689334 358 37488ft 452kts
12-Jan-17 07:39 30.160669 -82.688568 358 37489ft 452kts
12-Jan-17 07:40 30.287584 -82.687780 358 37489ft 452kts
12-Jan-17 07:41 30.413142 -82.686991 357 37490ft 452kts
12-Jan-17 07:42 30.537487 -82.671043 16 37493ft 458kts
12-Jan-17 07:43 30.656007 -82.614583 20 37495ft 459kts
12-Jan-17 07:44 30.773782 -82.556829 20 37497ft 461kts
12-Jan-17 07:45 30.892077 -82.498567 20 37498ft 461kts
12-Jan-17 07:46 31.010384 -82.440608 19 37497ft 461kts
12-Jan-17 07:47 31.128802 -82.383004 19 37500ft 462kts
12-Jan-17 07:48 31.247392 -82.325110 19 37500ft 463kts
12-Jan-17 07:49 31.366101 -82.267205 19 37503ft 463kts
12-Jan-17 07:50 31.485264 -82.208850 19 37509ft 463kts
12-Jan-17 07:51 31.604436 -82.150287 18 37510ft 464kts
12-Jan-17 07:52 31.723340 -82.091770 18 37513ft 464kts
12-Jan-17 07:53 31.842595 -82.032808 18 37513ft 464kts
12-Jan-17 07:54 31.961047 -81.974030 18 37511ft 464kts
12-Jan-17 07:55 32.080982 -81.916476 16 37507ft 465kts
12-Jan-17 07:56 32.200920 -81.859439 16 37510ft 466kts
12-Jan-17 07:57 32.321485 -81.801891 16 37509ft 466kts
12-Jan-17 07:58 32.441243 -81.744693 16 37509ft 466kts
12-Jan-17 07:59 32.562209 -81.686654 16 37511ft 466kts
12-Jan-17 08:00 32.682029 -81.628966 16 37519ft 467kts
12-Jan-17 08:01 32.802396 -81.570836 16 37518ft 468kts
12-Jan-17 08:02 32.922793 -81.512522 16 37516ft 468kts
12-Jan-17 08:03 33.043614 -81.453826 16 37511ft 468kts
12-Jan-17 08:04 33.164167 -81.395085 16 37510ft 469kts
12-Jan-17 08:05 33.285282 -81.335896 16 37510ft 469kts
12-Jan-17 08:06 33.405918 -81.276761 16 37511ft 469kts
12-Jan-17 08:07 33.526659 -81.217395 16 37510ft 469kts
12-Jan-17 08:08 33.647717 -81.157807 16 37506ft 469kts
12-Jan-17 08:09 33.768333 -81.098066 16 37497ft 470kts
12-Jan-17 08:10 33.884796 -81.024844 32 37495ft 480kts
12-Jan-17 08:11 33.985435 -80.918909 36 37497ft 483kts
12-Jan-17 08:12 34.086441 -80.810935 36 37492ft 486kts
12-Jan-17 08:13 34.187502 -80.703465 36 37485ft 484kts
12-Jan-17 08:14 34.288733 -80.595419 36 37489ft 484kts
12-Jan-17 08:15 34.389312 -80.487621 36 37270ft 483kts
12-Jan-17 08:16 34.489061 -80.380343 37 34706ft 483kts
12-Jan-17 08:17 34.590154 -80.271468 37 32133ft 479kts
12-Jan-17 08:18 34.688090 -80.165306 38 30067ft 466kts
12-Jan-17 08:19 34.783262 -80.061757 38 28096ft 454kts
12-Jan-17 08:20 34.876415 -79.960088 37 26135ft 444kts
12-Jan-17 08:21 34.967512 -79.860398 37 24190ft 437kts
12-Jan-17 08:22 35.057115 -79.762616 37 22260ft 431kts
12-Jan-17 08:23 35.145892 -79.664830 38 20311ft 426kts
12-Jan-17 08:24 35.235654 -79.573259 28 18401ft 414kts
12-Jan-17 08:25 35.330732 -79.507607 25 16804ft 383kts
12-Jan-17 08:26 35.421246 -79.444552 25 15939ft 350kts
12-Jan-17 08:27 35.502200 -79.384900 35 14448ft 340kts
12-Jan-17 08:28 35.559571 -79.296754 52 13262ft 325kts
12-Jan-17 08:29 35.612398 -79.208520 52 11885ft 319kts
12-Jan-17 08:30 35.665531 -79.120088 52 10262ft 320kts
12-Jan-17 08:31 35.717584 -79.032957 52 9257ft 319kts
12-Jan-17 08:32 35.768827 -78.946760 52 8351ft 297kts
12-Jan-17 08:33 35.799514 -78.860547 90 7549ft 271kts
12-Jan-17 08:34 35.802038 -78.771595 75 6594ft 245kts
12-Jan-17 08:35 35.829474 -78.700972 64 5895ft 220kts
12-Jan-17 08:36 35.868369 -78.647798 26 4984ft 186kts
12-Jan-17 08:37 35.904749 -78.670656 301 3552ft 158kts
12-Jan-17 08:38 35.926537 -78.717340 246 1641ft 145kts
12-Jan-17 08:39 35.903560 -78.749194 226 1155ft 117kts
12-Jan-17 08:40 35.879204 -78.779381 225 483ft 123kts
12-Jan-17 08:41 35.870888 -78.790952 15 443ft 10kts
12-Jan-17 08:42 35.873273 -78.789376 309 443ft 2kts
12-Jan-17 08:43 35.873668 -78.789848 317 443ft 0kts
12-Jan-17 08:44 35.873668 -78.789848 317 443ft 0kts
12-Jan-17 08:45 35.873668 -78.789848 317 443ft 0kts
12-Jan-17 08:46 35.873668 -78.789848 317 443ft 0kts
12-Jan-17 08:47 35.873668 -78.789848 317 443ft 0kts

Navigation Log

Ident Type
Flight plan parsing failed, navigation log unavailable